sensor_id;sensor_type;location;lat;lon;timestamp;P1;durP1;ratioP1;P2;durP2;ratioP2
51828;SDS011;37881;48.024;8.774;2023-05-07T00:01:21;6.97;;;5.13;;
51828;SDS011;37881;48.024;8.774;2023-05-07T00:03:47;10.33;;;5.47;;
51828;SDS011;37881;48.024;8.774;2023-05-07T00:06:14;8.45;;;5.72;;
51828;SDS011;37881;48.024;8.774;2023-05-07T00:08:41;10.32;;;5.43;;
51828;SDS011;37881;48.024;8.774;2023-05-07T00:11:08;7.70;;;5.60;;
51828;SDS011;37881;48.024;8.774;2023-05-07T00:13:34;8.45;;;5.40;;
51828;SDS011;37881;48.024;8.774;2023-05-07T00:16:02;8.23;;;5.63;;
51828;SDS011;37881;48.024;8.774;2023-05-07T00:18:29;9.07;;;5.97;;
51828;SDS011;37881;48.024;8.774;2023-05-07T00:20:56;9.65;;;5.20;;
51828;SDS011;37881;48.024;8.774;2023-05-07T00:23:23;7.32;;;5.13;;
51828;SDS011;37881;48.024;8.774;2023-05-07T00:25:50;8.13;;;5.63;;
51828;SDS011;37881;48.024;8.774;2023-05-07T00:28:16;8.43;;;5.83;;
51828;SDS011;37881;48.024;8.774;2023-05-07T00:30:43;7.85;;;5.70;;
51828;SDS011;37881;48.024;8.774;2023-05-07T00:33:10;8.18;;;5.97;;
51828;SDS011;37881;48.024;8.774;2023-05-07T00:35:37;9.70;;;5.55;;
51828;SDS011;37881;48.024;8.774;2023-05-07T00:38:03;7.95;;;5.60;;
51828;SDS011;37881;48.024;8.774;2023-05-07T00:40:30;8.60;;;5.70;;
51828;SDS011;37881;48.024;8.774;2023-05-07T00:42:57;10.45;;;5.38;;
51828;SDS011;37881;48.024;8.774;2023-05-07T00:45:27;9.45;;;6.10;;
51828;SDS011;37881;48.024;8.774;2023-05-07T00:47:55;8.80;;;5.20;;
51828;SDS011;37881;48.024;8.774;2023-05-07T00:50:23;8.25;;;5.82;;
51828;SDS011;37881;48.024;8.774;2023-05-07T00:52:50;7.87;;;5.33;;
51828;SDS011;37881;48.024;8.774;2023-05-07T00:55:17;10.18;;;5.75;;
51828;SDS011;37881;48.024;8.774;2023-05-07T00:57:44;10.68;;;7.00;;
51828;SDS011;37881;48.024;8.774;2023-05-07T01:00:11;39.95;;;25.13;;
51828;SDS011;37881;48.024;8.774;2023-05-07T01:02:40;13.18;;;9.20;;
51828;SDS011;37881;48.024;8.774;2023-05-07T01:05:09;8.43;;;6.47;;
51828;SDS011;37881;48.024;8.774;2023-05-07T01:07:38;9.57;;;6.43;;
51828;SDS011;37881;48.024;8.774;2023-05-07T01:10:07;8.38;;;6.15;;
51828;SDS011;37881;48.024;8.774;2023-05-07T01:12:35;9.52;;;6.20;;
51828;SDS011;37881;48.024;8.774;2023-05-07T01:15:04;9.48;;;5.90;;
51828;SDS011;37881;48.024;8.774;2023-05-07T01:17:39;8.17;;;5.87;;
51828;SDS011;37881;48.024;8.774;2023-05-07T01:20:07;7.82;;;5.80;;
51828;SDS011;37881;48.024;8.774;2023-05-07T01:22:37;9.13;;;6.40;;
51828;SDS011;37881;48.024;8.774;2023-05-07T01:25:05;8.60;;;6.20;;
51828;SDS011;37881;48.024;8.774;2023-05-07T01:27:34;8.02;;;5.63;;
51828;SDS011;37881;48.024;8.774;2023-05-07T01:30:03;8.60;;;5.50;;
51828;SDS011;37881;48.024;8.774;2023-05-07T01:32:35;8.70;;;5.60;;
51828;SDS011;37881;48.024;8.774;2023-05-07T01:35:09;8.77;;;5.80;;
51828;SDS011;37881;48.024;8.774;2023-05-07T01:37:38;8.43;;;5.05;;
51828;SDS011;37881;48.024;8.774;2023-05-07T01:40:06;7.97;;;5.40;;
51828;SDS011;37881;48.024;8.774;2023-05-07T01:42:34;8.27;;;5.50;;
51828;SDS011;37881;48.024;8.774;2023-05-07T01:45:02;7.28;;;5.22;;
51828;SDS011;37881;48.024;8.774;2023-05-07T01:47:29;7.50;;;5.25;;
51828;SDS011;37881;48.024;8.774;2023-05-07T01:49:56;8.30;;;5.20;;
51828;SDS011;37881;48.024;8.774;2023-05-07T01:52:23;7.30;;;5.50;;
51828;SDS011;37881;48.024;8.774;2023-05-07T01:54:51;8.57;;;5.37;;
51828;SDS011;37881;48.024;8.774;2023-05-07T01:57:17;8.20;;;5.30;;
51828;SDS011;37881;48.024;8.774;2023-05-07T01:59:44;31.73;;;19.77;;
51828;SDS011;37881;48.024;8.774;2023-05-07T02:02:11;26.20;;;15.35;;
51828;SDS011;37881;48.024;8.774;2023-05-07T02:04:38;11.57;;;7.93;;
51828;SDS011;37881;48.024;8.774;2023-05-07T02:07:05;9.87;;;5.60;;
51828;SDS011;37881;48.024;8.774;2023-05-07T02:09:31;9.00;;;5.90;;
51828;SDS011;37881;48.024;8.774;2023-05-07T02:11:58;7.68;;;5.60;;
51828;SDS011;37881;48.024;8.774;2023-05-07T02:14:25;9.02;;;5.47;;
51828;SDS011;37881;48.024;8.774;2023-05-07T02:16:52;8.32;;;5.70;;
51828;SDS011;37881;48.024;8.774;2023-05-07T02:19:19;8.10;;;5.50;;
51828;SDS011;37881;48.024;8.774;2023-05-07T02:21:47;7.47;;;5.40;;
51828;SDS011;37881;48.024;8.774;2023-05-07T02:24:14;7.18;;;5.38;;
51828;SDS011;37881;48.024;8.774;2023-05-07T02:26:41;8.30;;;5.47;;
51828;SDS011;37881;48.024;8.774;2023-05-07T02:29:07;7.18;;;5.38;;
51828;SDS011;37881;48.024;8.774;2023-05-07T02:31:34;8.53;;;5.80;;
51828;SDS011;37881;48.024;8.774;2023-05-07T02:34:01;8.18;;;5.90;;
51828;SDS011;37881;48.024;8.774;2023-05-07T02:36:28;8.45;;;5.68;;
51828;SDS011;37881;48.024;8.774;2023-05-07T02:38:54;7.47;;;5.55;;
51828;SDS011;37881;48.024;8.774;2023-05-07T02:41:21;8.40;;;6.20;;
51828;SDS011;37881;48.024;8.774;2023-05-07T02:43:48;8.00;;;5.77;;
51828;SDS011;37881;48.024;8.774;2023-05-07T02:46:14;8.45;;;5.85;;
51828;SDS011;37881;48.024;8.774;2023-05-07T02:48:42;9.52;;;6.05;;
51828;SDS011;37881;48.024;8.774;2023-05-07T02:51:09;8.40;;;6.07;;
51828;SDS011;37881;48.024;8.774;2023-05-07T02:53:36;8.85;;;6.18;;
51828;SDS011;37881;48.024;8.774;2023-05-07T02:56:03;8.17;;;5.47;;
51828;SDS011;37881;48.024;8.774;2023-05-07T02:58:29;8.35;;;5.68;;
51828;SDS011;37881;48.024;8.774;2023-05-07T03:00:56;9.27;;;5.82;;
51828;SDS011;37881;48.024;8.774;2023-05-07T03:03:23;7.53;;;5.38;;
51828;SDS011;37881;48.024;8.774;2023-05-07T03:05:50;8.38;;;6.00;;
51828;SDS011;37881;48.024;8.774;2023-05-07T03:08:17;10.97;;;5.80;;
51828;SDS011;37881;48.024;8.774;2023-05-07T03:10:43;15.00;;;8.70;;
51828;SDS011;37881;48.024;8.774;2023-05-07T03:13:10;9.50;;;6.88;;
51828;SDS011;37881;48.024;8.774;2023-05-07T03:15:37;9.18;;;6.35;;
51828;SDS011;37881;48.024;8.774;2023-05-07T03:18:04;8.75;;;6.00;;
51828;SDS011;37881;48.024;8.774;2023-05-07T03:20:30;9.00;;;6.27;;
51828;SDS011;37881;48.024;8.774;2023-05-07T03:22:57;8.13;;;6.13;;
51828;SDS011;37881;48.024;8.774;2023-05-07T03:25:24;9.27;;;6.35;;
51828;SDS011;37881;48.024;8.774;2023-05-07T03:27:51;9.73;;;6.00;;
51828;SDS011;37881;48.024;8.774;2023-05-07T03:30:18;8.73;;;6.15;;
51828;SDS011;37881;48.024;8.774;2023-05-07T03:32:45;9.17;;;6.23;;
51828;SDS011;37881;48.024;8.774;2023-05-07T03:35:12;8.73;;;6.25;;
51828;SDS011;37881;48.024;8.774;2023-05-07T03:37:39;8.40;;;6.35;;
51828;SDS011;37881;48.024;8.774;2023-05-07T03:40:06;8.65;;;6.10;;
51828;SDS011;37881;48.024;8.774;2023-05-07T03:42:34;8.73;;;6.47;;
51828;SDS011;37881;48.024;8.774;2023-05-07T03:45:01;8.47;;;6.03;;
51828;SDS011;37881;48.024;8.774;2023-05-07T03:47:28;9.45;;;6.30;;
51828;SDS011;37881;48.024;8.774;2023-05-07T03:49:55;10.20;;;6.13;;
51828;SDS011;37881;48.024;8.774;2023-05-07T03:52:22;9.23;;;6.13;;
51828;SDS011;37881;48.024;8.774;2023-05-07T03:54:52;11.93;;;6.30;;
51828;SDS011;37881;48.024;8.774;2023-05-07T03:57:19;10.17;;;6.50;;
51828;SDS011;37881;48.024;8.774;2023-05-07T03:59:46;8.63;;;6.30;;
51828;SDS011;37881;48.024;8.774;2023-05-07T04:02:13;8.90;;;6.05;;
51828;SDS011;37881;48.024;8.774;2023-05-07T04:04:40;9.70;;;6.45;;
51828;SDS011;37881;48.024;8.774;2023-05-07T04:07:06;8.38;;;6.20;;
51828;SDS011;37881;48.024;8.774;2023-05-07T04:09:33;8.63;;;6.47;;
51828;SDS011;37881;48.024;8.774;2023-05-07T04:12:00;9.57;;;6.25;;
51828;SDS011;37881;48.024;8.774;2023-05-07T04:14:27;9.10;;;5.85;;
51828;SDS011;37881;48.024;8.774;2023-05-07T04:16:54;9.73;;;6.30;;
51828;SDS011;37881;48.024;8.774;2023-05-07T04:19:21;9.20;;;6.38;;
51828;SDS011;37881;48.024;8.774;2023-05-07T04:21:47;9.60;;;6.33;;
51828;SDS011;37881;48.024;8.774;2023-05-07T04:24:14;8.77;;;6.32;;
51828;SDS011;37881;48.024;8.774;2023-05-07T04:26:41;8.68;;;6.90;;
51828;SDS011;37881;48.024;8.774;2023-05-07T04:29:07;9.60;;;6.60;;
51828;SDS011;37881;48.024;8.774;2023-05-07T04:31:34;8.70;;;6.60;;
51828;SDS011;37881;48.024;8.774;2023-05-07T04:34:01;9.67;;;6.47;;
51828;SDS011;37881;48.024;8.774;2023-05-07T04:36:28;9.48;;;6.40;;
51828;SDS011;37881;48.024;8.774;2023-05-07T04:38:55;12.07;;;6.65;;
51828;SDS011;37881;48.024;8.774;2023-05-07T04:41:22;10.73;;;6.47;;
51828;SDS011;37881;48.024;8.774;2023-05-07T04:43:49;9.13;;;6.38;;
51828;SDS011;37881;48.024;8.774;2023-05-07T04:46:15;12.00;;;6.17;;
51828;SDS011;37881;48.024;8.774;2023-05-07T04:48:42;9.15;;;6.28;;
51828;SDS011;37881;48.024;8.774;2023-05-07T04:51:09;8.88;;;6.28;;
51828;SDS011;37881;48.024;8.774;2023-05-07T04:53:37;9.15;;;6.20;;
51828;SDS011;37881;48.024;8.774;2023-05-07T04:56:04;8.32;;;5.80;;
51828;SDS011;37881;48.024;8.774;2023-05-07T04:58:30;8.47;;;6.17;;
51828;SDS011;37881;48.024;8.774;2023-05-07T05:00:58;8.65;;;5.70;;
51828;SDS011;37881;48.024;8.774;2023-05-07T05:03:25;9.55;;;6.00;;
51828;SDS011;37881;48.024;8.774;2023-05-07T05:05:52;8.52;;;5.70;;
51828;SDS011;37881;48.024;8.774;2023-05-07T05:08:19;8.13;;;6.20;;
51828;SDS011;37881;48.024;8.774;2023-05-07T05:10:46;8.80;;;6.27;;
51828;SDS011;37881;48.024;8.774;2023-05-07T05:13:15;20.95;;;11.32;;
51828;SDS011;37881;48.024;8.774;2023-05-07T05:15:41;23.02;;;13.18;;
51828;SDS011;37881;48.024;8.774;2023-05-07T05:18:08;12.00;;;8.00;;
51828;SDS011;37881;48.024;8.774;2023-05-07T05:20:35;10.85;;;6.97;;
51828;SDS011;37881;48.024;8.774;2023-05-07T05:23:02;9.07;;;6.63;;
51828;SDS011;37881;48.024;8.774;2023-05-07T05:25:29;9.07;;;6.90;;
51828;SDS011;37881;48.024;8.774;2023-05-07T05:27:55;10.02;;;7.03;;
51828;SDS011;37881;48.024;8.774;2023-05-07T05:30:22;10.02;;;7.13;;
51828;SDS011;37881;48.024;8.774;2023-05-07T05:32:49;9.13;;;7.00;;
51828;SDS011;37881;48.024;8.774;2023-05-07T05:35:17;11.00;;;6.80;;
51828;SDS011;37881;48.024;8.774;2023-05-07T05:37:44;8.95;;;6.72;;
51828;SDS011;37881;48.024;8.774;2023-05-07T05:40:11;9.32;;;6.90;;
51828;SDS011;37881;48.024;8.774;2023-05-07T05:42:38;9.35;;;6.90;;
51828;SDS011;37881;48.024;8.774;2023-05-07T05:45:05;10.38;;;7.90;;
51828;SDS011;37881;48.024;8.774;2023-05-07T05:47:32;11.23;;;7.87;;
51828;SDS011;37881;48.024;8.774;2023-05-07T05:49:59;9.35;;;7.25;;
51828;SDS011;37881;48.024;8.774;2023-05-07T05:52:26;8.65;;;6.93;;
51828;SDS011;37881;48.024;8.774;2023-05-07T05:54:53;9.77;;;6.70;;
51828;SDS011;37881;48.024;8.774;2023-05-07T05:57:20;8.82;;;6.10;;
51828;SDS011;37881;48.024;8.774;2023-05-07T05:59:47;6.43;;;5.50;;
51828;SDS011;37881;48.024;8.774;2023-05-07T06:02:13;6.50;;;5.43;;
51828;SDS011;37881;48.024;8.774;2023-05-07T06:04:40;7.68;;;5.25;;
51828;SDS011;37881;48.024;8.774;2023-05-07T06:07:09;8.60;;;5.40;;
51828;SDS011;37881;48.024;8.774;2023-05-07T06:09:36;6.68;;;5.05;;
51828;SDS011;37881;48.024;8.774;2023-05-07T06:12:02;7.40;;;4.70;;
51828;SDS011;37881;48.024;8.774;2023-05-07T06:14:29;5.60;;;4.90;;
51828;SDS011;37881;48.024;8.774;2023-05-07T06:16:56;7.63;;;5.18;;
51828;SDS011;37881;48.024;8.774;2023-05-07T06:19:23;7.93;;;4.93;;
51828;SDS011;37881;48.024;8.774;2023-05-07T06:21:50;7.35;;;5.15;;
51828;SDS011;37881;48.024;8.774;2023-05-07T06:24:17;5.93;;;4.87;;
51828;SDS011;37881;48.024;8.774;2023-05-07T06:26:43;6.45;;;5.03;;
51828;SDS011;37881;48.024;8.774;2023-05-07T06:29:10;7.57;;;4.85;;
51828;SDS011;37881;48.024;8.774;2023-05-07T06:31:37;7.70;;;4.93;;
51828;SDS011;37881;48.024;8.774;2023-05-07T06:34:04;6.60;;;4.70;;
51828;SDS011;37881;48.024;8.774;2023-05-07T06:36:31;6.40;;;4.90;;
51828;SDS011;37881;48.024;8.774;2023-05-07T06:38:58;8.00;;;4.78;;
51828;SDS011;37881;48.024;8.774;2023-05-07T06:41:24;7.13;;;5.35;;
51828;SDS011;37881;48.024;8.774;2023-05-07T06:43:52;8.13;;;5.47;;
51828;SDS011;37881;48.024;8.774;2023-05-07T06:46:18;6.13;;;4.75;;
51828;SDS011;37881;48.024;8.774;2023-05-07T06:48:45;6.47;;;5.00;;
51828;SDS011;37881;48.024;8.774;2023-05-07T06:51:12;8.32;;;5.20;;
51828;SDS011;37881;48.024;8.774;2023-05-07T06:53:38;6.65;;;4.82;;
51828;SDS011;37881;48.024;8.774;2023-05-07T06:56:05;5.38;;;4.40;;
51828;SDS011;37881;48.024;8.774;2023-05-07T06:58:32;5.90;;;4.63;;
51828;SDS011;37881;48.024;8.774;2023-05-07T07:00:59;6.83;;;4.90;;
51828;SDS011;37881;48.024;8.774;2023-05-07T07:03:26;6.93;;;5.00;;
51828;SDS011;37881;48.024;8.774;2023-05-07T07:05:53;6.07;;;5.20;;
51828;SDS011;37881;48.024;8.774;2023-05-07T07:08:21;5.95;;;5.30;;
51828;SDS011;37881;48.024;8.774;2023-05-07T07:10:48;6.70;;;5.05;;
51828;SDS011;37881;48.024;8.774;2023-05-07T07:13:14;7.30;;;5.53;;
51828;SDS011;37881;48.024;8.774;2023-05-07T07:15:42;7.60;;;5.78;;
51828;SDS011;37881;48.024;8.774;2023-05-07T07:18:09;7.28;;;5.70;;
51828;SDS011;37881;48.024;8.774;2023-05-07T07:20:36;6.90;;;5.60;;
51828;SDS011;37881;48.024;8.774;2023-05-07T07:23:03;5.97;;;5.05;;
51828;SDS011;37881;48.024;8.774;2023-05-07T07:25:30;6.93;;;4.80;;
51828;SDS011;37881;48.024;8.774;2023-05-07T07:27:56;6.53;;;4.45;;
51828;SDS011;37881;48.024;8.774;2023-05-07T07:30:23;6.05;;;4.43;;
51828;SDS011;37881;48.024;8.774;2023-05-07T07:32:50;6.03;;;4.13;;
51828;SDS011;37881;48.024;8.774;2023-05-07T07:35:18;6.65;;;4.47;;
51828;SDS011;37881;48.024;8.774;2023-05-07T07:37:44;6.73;;;4.10;;
51828;SDS011;37881;48.024;8.774;2023-05-07T07:40:11;5.70;;;4.53;;
51828;SDS011;37881;48.024;8.774;2023-05-07T07:42:38;7.13;;;4.38;;
51828;SDS011;37881;48.024;8.774;2023-05-07T07:45:05;6.13;;;4.57;;
51828;SDS011;37881;48.024;8.774;2023-05-07T07:47:32;5.70;;;4.75;;
51828;SDS011;37881;48.024;8.774;2023-05-07T07:49:59;7.50;;;4.57;;
51828;SDS011;37881;48.024;8.774;2023-05-07T07:52:26;5.30;;;4.10;;
51828;SDS011;37881;48.024;8.774;2023-05-07T07:54:52;5.38;;;3.97;;
51828;SDS011;37881;48.024;8.774;2023-05-07T07:57:19;5.47;;;3.47;;
51828;SDS011;37881;48.024;8.774;2023-05-07T07:59:46;5.70;;;3.60;;
51828;SDS011;37881;48.024;8.774;2023-05-07T08:02:12;5.50;;;3.57;;
51828;SDS011;37881;48.024;8.774;2023-05-07T08:04:39;5.00;;;3.67;;
51828;SDS011;37881;48.024;8.774;2023-05-07T08:07:06;5.35;;;3.55;;
51828;SDS011;37881;48.024;8.774;2023-05-07T08:09:33;5.00;;;3.33;;
51828;SDS011;37881;48.024;8.774;2023-05-07T08:12:00;5.85;;;3.70;;
51828;SDS011;37881;48.024;8.774;2023-05-07T08:14:27;6.40;;;3.80;;
51828;SDS011;37881;48.024;8.774;2023-05-07T08:16:54;6.20;;;3.42;;
51828;SDS011;37881;48.024;8.774;2023-05-07T08:19:21;5.13;;;3.50;;
51828;SDS011;37881;48.024;8.774;2023-05-07T08:21:49;6.18;;;3.40;;
51828;SDS011;37881;48.024;8.774;2023-05-07T08:24:15;4.63;;;3.00;;
51828;SDS011;37881;48.024;8.774;2023-05-07T08:26:43;4.83;;;3.10;;
51828;SDS011;37881;48.024;8.774;2023-05-07T08:29:12;5.25;;;3.50;;
51828;SDS011;37881;48.024;8.774;2023-05-07T08:31:39;5.75;;;3.40;;
51828;SDS011;37881;48.024;8.774;2023-05-07T08:34:05;4.82;;;3.28;;
51828;SDS011;37881;48.024;8.774;2023-05-07T08:36:35;4.95;;;3.33;;
51828;SDS011;37881;48.024;8.774;2023-05-07T08:39:02;4.43;;;3.33;;
51828;SDS011;37881;48.024;8.774;2023-05-07T08:41:29;5.05;;;3.10;;
51828;SDS011;37881;48.024;8.774;2023-05-07T08:43:56;4.47;;;3.10;;
51828;SDS011;37881;48.024;8.774;2023-05-07T08:46:26;4.20;;;2.70;;
51828;SDS011;37881;48.024;8.774;2023-05-07T08:48:57;4.25;;;3.03;;
51828;SDS011;37881;48.024;8.774;2023-05-07T08:51:24;4.20;;;3.03;;
51828;SDS011;37881;48.024;8.774;2023-05-07T08:53:51;3.42;;;1.90;;
51828;SDS011;37881;48.024;8.774;2023-05-07T08:56:18;3.50;;;2.50;;
51828;SDS011;37881;48.024;8.774;2023-05-07T08:58:48;3.10;;;2.47;;
51828;SDS011;37881;48.024;8.774;2023-05-07T09:01:15;4.32;;;2.40;;
51828;SDS011;37881;48.024;8.774;2023-05-07T09:03:46;4.77;;;2.30;;
51828;SDS011;37881;48.024;8.774;2023-05-07T09:06:13;4.38;;;2.50;;
51828;SDS011;37881;48.024;8.774;2023-05-07T09:08:40;3.80;;;2.50;;
51828;SDS011;37881;48.024;8.774;2023-05-07T09:11:07;3.40;;;2.50;;
51828;SDS011;37881;48.024;8.774;2023-05-07T09:13:33;3.90;;;2.38;;
51828;SDS011;37881;48.024;8.774;2023-05-07T09:16:09;4.13;;;2.50;;
51828;SDS011;37881;48.024;8.774;2023-05-07T09:18:41;4.00;;;2.40;;
51828;SDS011;37881;48.024;8.774;2023-05-07T09:21:11;2.90;;;2.20;;
51828;SDS011;37881;48.024;8.774;2023-05-07T09:23:42;4.68;;;2.80;;
51828;SDS011;37881;48.024;8.774;2023-05-07T09:26:08;3.70;;;2.70;;
51828;SDS011;37881;48.024;8.774;2023-05-07T09:28:41;3.73;;;2.40;;
51828;SDS011;37881;48.024;8.774;2023-05-07T09:31:08;3.65;;;2.40;;
51828;SDS011;37881;48.024;8.774;2023-05-07T09:33:36;3.25;;;2.30;;
51828;SDS011;37881;48.024;8.774;2023-05-07T09:36:04;4.05;;;2.20;;
51828;SDS011;37881;48.024;8.774;2023-05-07T09:38:32;3.30;;;2.20;;
51828;SDS011;37881;48.024;8.774;2023-05-07T09:41:07;4.27;;;2.30;;
51828;SDS011;37881;48.024;8.774;2023-05-07T09:43:35;4.05;;;2.88;;
51828;SDS011;37881;48.024;8.774;2023-05-07T09:46:08;3.55;;;2.67;;
51828;SDS011;37881;48.024;8.774;2023-05-07T09:48:40;4.22;;;2.50;;
51828;SDS011;37881;48.024;8.774;2023-05-07T09:54:04;4.53;;;2.80;;
51828;SDS011;37881;48.024;8.774;2023-05-07T09:56:31;4.35;;;2.78;;
51828;SDS011;37881;48.024;8.774;2023-05-07T09:59:01;4.20;;;2.80;;
51828;SDS011;37881;48.024;8.774;2023-05-07T10:01:30;4.25;;;2.97;;
51828;SDS011;37881;48.024;8.774;2023-05-07T10:03:58;4.00;;;2.90;;
51828;SDS011;37881;48.024;8.774;2023-05-07T10:06:25;3.93;;;2.90;;
51828;SDS011;37881;48.024;8.774;2023-05-07T10:08:52;4.40;;;2.88;;
51828;SDS011;37881;48.024;8.774;2023-05-07T10:11:21;5.00;;;3.10;;
51828;SDS011;37881;48.024;8.774;2023-05-07T10:13:48;3.95;;;2.85;;
51828;SDS011;37881;48.024;8.774;2023-05-07T10:16:15;3.85;;;2.67;;
51828;SDS011;37881;48.024;8.774;2023-05-07T10:18:43;4.17;;;2.93;;
51828;SDS011;37881;48.024;8.774;2023-05-07T10:21:17;5.22;;;2.92;;
51828;SDS011;37881;48.024;8.774;2023-05-07T10:23:45;4.10;;;2.85;;
51828;SDS011;37881;48.024;8.774;2023-05-07T10:26:17;4.53;;;2.85;;
51828;SDS011;37881;48.024;8.774;2023-05-07T10:28:47;3.50;;;2.63;;
51828;SDS011;37881;48.024;8.774;2023-05-07T10:34:12;3.63;;;2.92;;
51828;SDS011;37881;48.024;8.774;2023-05-07T10:36:45;4.40;;;3.20;;
51828;SDS011;37881;48.024;8.774;2023-05-07T10:39:13;4.40;;;3.30;;
51828;SDS011;37881;48.024;8.774;2023-05-07T10:41:39;4.22;;;3.33;;
51828;SDS011;37881;48.024;8.774;2023-05-07T10:44:06;6.50;;;3.40;;
51828;SDS011;37881;48.024;8.774;2023-05-07T10:46:33;6.15;;;3.67;;
51828;SDS011;37881;48.024;8.774;2023-05-07T10:51:29;5.97;;;3.50;;
51828;SDS011;37881;48.024;8.774;2023-05-07T10:56:36;5.03;;;3.83;;
51828;SDS011;37881;48.024;8.774;2023-05-07T11:01:58;5.53;;;4.07;;
51828;SDS011;37881;48.024;8.774;2023-05-07T11:04:30;5.80;;;4.03;;
51828;SDS011;37881;48.024;8.774;2023-05-07T11:17:58;5.03;;;3.90;;
51828;SDS011;37881;48.024;8.774;2023-05-07T11:26:08;5.75;;;4.22;;
51828;SDS011;37881;48.024;8.774;2023-05-07T11:28:38;5.93;;;4.15;;
51828;SDS011;37881;48.024;8.774;2023-05-07T11:31:06;5.80;;;3.90;;
51828;SDS011;37881;48.024;8.774;2023-05-07T11:33:34;5.10;;;3.80;;
51828;SDS011;37881;48.024;8.774;2023-05-07T11:36:02;5.80;;;3.93;;
51828;SDS011;37881;48.024;8.774;2023-05-07T11:38:30;7.32;;;4.70;;
51828;SDS011;37881;48.024;8.774;2023-05-07T11:41:00;7.85;;;4.70;;
51828;SDS011;37881;48.024;8.774;2023-05-07T11:43:31;6.53;;;4.40;;
51828;SDS011;37881;48.024;8.774;2023-05-07T11:46:09;6.10;;;4.65;;
51828;SDS011;37881;48.024;8.774;2023-05-07T11:48:37;5.73;;;4.70;;
51828;SDS011;37881;48.024;8.774;2023-05-07T11:51:05;6.32;;;4.60;;
51828;SDS011;37881;48.024;8.774;2023-05-07T11:53:36;7.20;;;4.93;;
51828;SDS011;37881;48.024;8.774;2023-05-07T11:56:08;7.05;;;4.63;;
51828;SDS011;37881;48.024;8.774;2023-05-07T11:58:42;5.32;;;4.30;;
51828;SDS011;37881;48.024;8.774;2023-05-07T12:01:09;5.07;;;4.00;;
51828;SDS011;37881;48.024;8.774;2023-05-07T12:03:39;6.00;;;4.60;;
51828;SDS011;37881;48.024;8.774;2023-05-07T12:06:12;6.00;;;4.18;;
51828;SDS011;37881;48.024;8.774;2023-05-07T12:08:41;5.45;;;4.10;;
51828;SDS011;37881;48.024;8.774;2023-05-07T12:11:14;6.93;;;4.07;;
51828;SDS011;37881;48.024;8.774;2023-05-07T12:13:43;7.53;;;4.43;;
51828;SDS011;37881;48.024;8.774;2023-05-07T12:16:11;7.55;;;4.22;;
51828;SDS011;37881;48.024;8.774;2023-05-07T12:18:38;6.63;;;3.70;;
51828;SDS011;37881;48.024;8.774;2023-05-07T12:21:06;6.32;;;3.60;;
51828;SDS011;37881;48.024;8.774;2023-05-07T12:23:34;6.53;;;3.40;;
51828;SDS011;37881;48.024;8.774;2023-05-07T12:26:02;7.47;;;3.20;;
51828;SDS011;37881;48.024;8.774;2023-05-07T12:28:35;12.23;;;4.40;;
51828;SDS011;37881;48.024;8.774;2023-05-07T12:31:03;13.20;;;4.50;;
51828;SDS011;37881;48.024;8.774;2023-05-07T12:33:31;11.98;;;4.15;;
51828;SDS011;37881;48.024;8.774;2023-05-07T12:36:02;9.10;;;4.70;;
51828;SDS011;37881;48.024;8.774;2023-05-07T12:38:33;8.50;;;4.53;;
51828;SDS011;37881;48.024;8.774;2023-05-07T12:41:02;9.00;;;4.22;;
51828;SDS011;37881;48.024;8.774;2023-05-07T12:43:29;7.68;;;4.95;;
51828;SDS011;37881;48.024;8.774;2023-05-07T12:45:57;6.95;;;3.97;;
51828;SDS011;37881;48.024;8.774;2023-05-07T12:48:26;6.38;;;4.00;;
51828;SDS011;37881;48.024;8.774;2023-05-07T12:50:56;7.20;;;4.10;;
51828;SDS011;37881;48.024;8.774;2023-05-07T12:53:27;7.38;;;4.00;;
51828;SDS011;37881;48.024;8.774;2023-05-07T12:55:56;8.27;;;4.20;;
51828;SDS011;37881;48.024;8.774;2023-05-07T12:58:28;7.95;;;4.10;;
51828;SDS011;37881;48.024;8.774;2023-05-07T13:00:57;6.78;;;3.70;;
51828;SDS011;37881;48.024;8.774;2023-05-07T13:03:33;6.30;;;3.73;;
51828;SDS011;37881;48.024;8.774;2023-05-07T13:06:05;7.45;;;3.55;;
51828;SDS011;37881;48.024;8.774;2023-05-07T13:08:36;5.80;;;3.40;;
51828;SDS011;37881;48.024;8.774;2023-05-07T13:11:11;7.35;;;3.25;;
51828;SDS011;37881;48.024;8.774;2023-05-07T13:13:39;8.52;;;3.50;;
51828;SDS011;37881;48.024;8.774;2023-05-07T13:16:08;7.33;;;3.53;;
51828;SDS011;37881;48.024;8.774;2023-05-07T13:18:37;6.35;;;3.80;;
51828;SDS011;37881;48.024;8.774;2023-05-07T13:21:05;5.78;;;3.60;;
51828;SDS011;37881;48.024;8.774;2023-05-07T13:23:33;8.02;;;3.67;;
51828;SDS011;37881;48.024;8.774;2023-05-07T13:26:00;6.68;;;4.10;;
51828;SDS011;37881;48.024;8.774;2023-05-07T13:28:36;5.67;;;4.03;;
51828;SDS011;37881;48.024;8.774;2023-05-07T13:31:03;5.85;;;4.00;;
51828;SDS011;37881;48.024;8.774;2023-05-07T13:33:30;6.65;;;4.20;;
51828;SDS011;37881;48.024;8.774;2023-05-07T13:35:57;5.90;;;4.30;;
51828;SDS011;37881;48.024;8.774;2023-05-07T13:38:24;6.03;;;3.63;;
51828;SDS011;37881;48.024;8.774;2023-05-07T13:40:51;6.20;;;3.33;;
51828;SDS011;37881;48.024;8.774;2023-05-07T13:43:18;4.55;;;2.97;;
51828;SDS011;37881;48.024;8.774;2023-05-07T13:45:45;5.85;;;3.50;;
51828;SDS011;37881;48.024;8.774;2023-05-07T13:48:11;4.50;;;3.47;;
51828;SDS011;37881;48.024;8.774;2023-05-07T13:50:38;4.38;;;3.30;;
51828;SDS011;37881;48.024;8.774;2023-05-07T13:53:05;5.10;;;3.53;;
51828;SDS011;37881;48.024;8.774;2023-05-07T13:55:32;5.75;;;3.80;;
51828;SDS011;37881;48.024;8.774;2023-05-07T13:57:59;6.80;;;4.07;;
51828;SDS011;37881;48.024;8.774;2023-05-07T14:00:27;6.03;;;4.00;;
51828;SDS011;37881;48.024;8.774;2023-05-07T14:02:55;5.40;;;3.92;;
51828;SDS011;37881;48.024;8.774;2023-05-07T14:05:23;6.30;;;4.00;;
51828;SDS011;37881;48.024;8.774;2023-05-07T14:07:50;6.78;;;3.70;;
51828;SDS011;37881;48.024;8.774;2023-05-07T14:10:18;6.80;;;3.70;;
51828;SDS011;37881;48.024;8.774;2023-05-07T14:12:45;4.43;;;3.30;;
51828;SDS011;37881;48.024;8.774;2023-05-07T14:15:13;4.93;;;3.63;;
51828;SDS011;37881;48.024;8.774;2023-05-07T14:17:40;4.50;;;3.70;;
51828;SDS011;37881;48.024;8.774;2023-05-07T14:20:07;5.18;;;3.83;;
51828;SDS011;37881;48.024;8.774;2023-05-07T14:22:35;5.40;;;3.55;;
51828;SDS011;37881;48.024;8.774;2023-05-07T14:25:01;5.28;;;3.67;;
51828;SDS011;37881;48.024;8.774;2023-05-07T14:27:39;4.80;;;3.50;;
51828;SDS011;37881;48.024;8.774;2023-05-07T14:30:06;4.77;;;3.50;;
51828;SDS011;37881;48.024;8.774;2023-05-07T14:32:34;5.72;;;3.80;;
51828;SDS011;37881;48.024;8.774;2023-05-07T14:35:01;5.00;;;3.40;;
51828;SDS011;37881;48.024;8.774;2023-05-07T14:37:27;5.82;;;3.15;;
51828;SDS011;37881;48.024;8.774;2023-05-07T14:39:54;5.32;;;3.38;;
51828;SDS011;37881;48.024;8.774;2023-05-07T14:42:21;6.00;;;3.97;;
51828;SDS011;37881;48.024;8.774;2023-05-07T14:44:47;6.50;;;3.90;;
51828;SDS011;37881;48.024;8.774;2023-05-07T14:47:14;8.57;;;4.45;;
51828;SDS011;37881;48.024;8.774;2023-05-07T14:49:45;7.80;;;4.30;;
51828;SDS011;37881;48.024;8.774;2023-05-07T14:52:11;7.13;;;4.60;;
51828;SDS011;37881;48.024;8.774;2023-05-07T14:54:38;5.77;;;4.40;;
51828;SDS011;37881;48.024;8.774;2023-05-07T14:57:05;7.85;;;5.00;;
51828;SDS011;37881;48.024;8.774;2023-05-07T14:59:33;6.38;;;4.20;;
51828;SDS011;37881;48.024;8.774;2023-05-07T15:02:00;7.15;;;4.80;;
51828;SDS011;37881;48.024;8.774;2023-05-07T15:04:31;5.68;;;4.45;;
51828;SDS011;37881;48.024;8.774;2023-05-07T15:06:58;6.43;;;4.60;;
51828;SDS011;37881;48.024;8.774;2023-05-07T15:09:25;6.07;;;4.38;;
51828;SDS011;37881;48.024;8.774;2023-05-07T15:11:51;6.78;;;4.60;;
51828;SDS011;37881;48.024;8.774;2023-05-07T15:14:18;6.57;;;4.30;;
51828;SDS011;37881;48.024;8.774;2023-05-07T15:16:45;5.82;;;4.22;;
51828;SDS011;37881;48.024;8.774;2023-05-07T15:19:12;8.50;;;4.30;;